Shin Puropan Maru — JG5508 — position and weather

sailwx.info

Track history (hours):
 
Tides and Currents Weather Stations Pressure Air Temp Water Temp Dewpoint Dewpoint Depression Visibility Wind Speed Wind Dir Waves Ship Positions

Shin Puropan Maru

Last reported at 2016-Feb-13 04:33 UTC. Time now 2016-Feb-13 04:41 UTC.
Position N 34°36' E 135°25'.

Length 66 m; draft 3.6 m.

Type: Ship (hazmat cat A). MMSI: 431100348.

Date/timePositionNaut miles runAvg speedWind from/ knotsBaromVisibWave heightAir tempDewpointWater temp
2016-Feb-13 04:33N 34°36' E 135°25'2 0.4
2016-Feb-13 00:06N 34°34' E 135°26'2 4.4
2016-Feb-12 23:33N 34°36' E 135°24'2 0.8
2016-Feb-12 21:21N 34°35' E 135°23'0 0.0
2016-Feb-12 20:33N 34°35' E 135°23'0 0.0
2016-Feb-12 19:27N 34°35' E 135°23'0 0.0
2016-Feb-12 18:33N 34°35' E 135°23'0 0.0
2016-Feb-12 17:21N 34°35' E 135°23'0 0.0
2016-Feb-12 16:21N 34°35' E 135°23'1 1.0
2016-Feb-12 15:33N 34°35' E 135°22'1111.2
2016-Feb-12 14:33N 34°27' E 135°12'1412.0
2016-Feb-12 13:26N 34°18' E 135°00'1112.2
2016-Feb-12 12:32N 34°07' E 135°00'240 9.5
2016-Feb-11 11:22N 35°09' E 139°42'910.7
2016-Feb-11 10:33N 35°17' E 139°45'10 9.6
2016-Feb-11 09:33N 35°26' E 139°46'1211.6
2016-Feb-11 08:33N 35°32' E 139°59'5 5.3
2016-Feb-11 07:33N 35°33' E 140°05'0 0.0
2016-Feb-11 06:33N 35°33' E 140°05'0 0.0
2016-Feb-11 05:27N 35°33' E 140°05'0 0.0
2016-Feb-11 04:33N 35°33' E 140°05'0 0.0
2016-Feb-11 03:27N 35°33' E 140°05'0 0.0
2016-Feb-11 02:33N 35°33' E 140°05'0 0.0
2016-Feb-11 01:33N 35°33' E 140°05'0 0.0
2016-Feb-11 00:33N 35°33' E 140°05'2 1.6
2016-Feb-10 23:33N 35°33' E 140°03'7 7.5
2016-Feb-10 22:33N 35°35' E 139°54'0 0.0
2016-Feb-10 21:32N 35°35' E 139°54'0 0.0
2016-Feb-10 20:32N 35°35' E 139°54'0 0.0
2016-Feb-10 19:32N 35°35' E 139°54'0 0.0
2016-Feb-10 18:32N 35°35' E 139°54'0 0.0
2016-Feb-10 17:32N 35°35' E 139°54'0 0.0
2016-Feb-10 16:29N 35°35' E 139°54'0 0.0
2016-Feb-10 15:29N 35°35' E 139°54'0 0.0
2016-Feb-10 14:29N 35°35' E 139°54'0 0.0
2016-Feb-10 13:32N 35°35' E 139°54'0 0.0
2016-Feb-10 12:32N 35°35' E 139°54'0 0.0
2016-Feb-10 11:32N 35°35' E 139°54'0 0.0
2016-Feb-10 10:32N 35°35' E 139°54'0 0.0
2016-Feb-10 09:32N 35°35' E 139°54'0 0.0
2016-Feb-10 08:32N 35°35' E 139°54'0 0.0
2016-Feb-10 07:32N 35°35' E 139°54'0 0.0
2016-Feb-10 06:32N 35°35' E 139°54'0 0.0
2016-Feb-10 05:26N 35°35' E 139°54'0 0.0
2016-Feb-10 04:32N 35°35' E 139°54'0 0.0
2016-Feb-10 03:29N 35°35' E 139°54'1 1.0
2016-Feb-10 02:33N 35°34' E 139°54'1110.7
2016-Feb-10 01:33N 35°25' E 139°47'9 9.5
2016-Feb-10 00:33N 35°15' E 139°47'  
2016-Feb-07 10:15N 34°03' E 135°01'912.2
2016-Feb-07 09:32N 34°12' E 134°59'1511.0
2016-Feb-07 08:08N 34°26' E 135°07'712.4
2016-Feb-07 07:33N 34°30' E 135°14'1111.0
2016-Feb-07 06:33N 34°36' E 135°25'1 0.4
2016-Feb-07 03:25N 34°34' E 135°26'4 4.9
2016-Feb-07 02:32N 34°35' E 135°20'1111.1
2016-Feb-07 01:33N 34°27' E 135°11'1210.4
2016-Feb-07 00:25N 34°19' E 135°01'910.5
2016-Feb-06 23:33N 34°10' E 134°60'2 0.0
2016-Feb-05 10:21N 34°08' E 134°60'2011.2
2016-Feb-05 08:31N 34°27' E 135°08'1212.1
2016-Feb-05 07:33N 34°34' E 135°19'5 0.7
2016-Feb-05 00:33N 34°34' E 135°26'7 6.8
2016-Feb-04 23:33N 34°33' E 135°17'1211.6
2016-Feb-04 22:33N 34°25' E 135°07'1211.6
2016-Feb-04 21:32N 34°15' E 134°60'9 0.2
2016-Feb-03 08:32N 34°06' E 134°60'2211.2
2016-Feb-03 06:33N 34°27' E 135°09'1212.4
2016-Feb-03 05:33N 34°35' E 135°20'  
Track history (hours):
 
Tides and Currents Weather Stations Pressure Air Temp Water Temp Dewpoint Dewpoint Depression Visibility Wind Speed Wind Dir Waves Ship Positions

Shin Puropan Maru

Last reported at 2016-Feb-13 04:33 UTC. Time now 2016-Feb-13 04:41 UTC.
Position N 34°36' E 135°25'.

Length 66 m; draft 3.6 m.

Type: Ship (hazmat cat A). MMSI: 431100348.

Date/timePositionNaut miles runAvg speedWind from/ knotsBaromVisibWave heightAir tempDewpointWater temp
2016-Feb-13 04:33N 34°36' E 135°25'2 0.4
2016-Feb-13 00:06N 34°34' E 135°26'2 4.4
2016-Feb-12 23:33N 34°36' E 135°24'2 0.8
2016-Feb-12 21:21N 34°35' E 135°23'0 0.0
2016-Feb-12 20:33N 34°35' E 135°23'0 0.0
2016-Feb-12 19:27N 34°35' E 135°23'0 0.0
2016-Feb-12 18:33N 34°35' E 135°23'0 0.0
2016-Feb-12 17:21N 34°35' E 135°23'0 0.0
2016-Feb-12 16:21N 34°35' E 135°23'1 1.0
2016-Feb-12 15:33N 34°35' E 135°22'1111.2
2016-Feb-12 14:33N 34°27' E 135°12'1412.0
2016-Feb-12 13:26N 34°18' E 135°00'1112.2
2016-Feb-12 12:32N 34°07' E 135°00'240 9.5
2016-Feb-11 11:22N 35°09' E 139°42'910.7
2016-Feb-11 10:33N 35°17' E 139°45'10 9.6
2016-Feb-11 09:33N 35°26' E 139°46'1211.6
2016-Feb-11 08:33N 35°32' E 139°59'5 5.3
2016-Feb-11 07:33N 35°33' E 140°05'0 0.0
2016-Feb-11 06:33N 35°33' E 140°05'0 0.0
2016-Feb-11 05:27N 35°33' E 140°05'0 0.0
2016-Feb-11 04:33N 35°33' E 140°05'0 0.0
2016-Feb-11 03:27N 35°33' E 140°05'0 0.0
2016-Feb-11 02:33N 35°33' E 140°05'0 0.0
2016-Feb-11 01:33N 35°33' E 140°05'0 0.0
2016-Feb-11 00:33N 35°33' E 140°05'2 1.6
2016-Feb-10 23:33N 35°33' E 140°03'7 7.5
2016-Feb-10 22:33N 35°35' E 139°54'0 0.0
2016-Feb-10 21:32N 35°35' E 139°54'0 0.0
2016-Feb-10 20:32N 35°35' E 139°54'0 0.0
2016-Feb-10 19:32N 35°35' E 139°54'0 0.0
2016-Feb-10 18:32N 35°35' E 139°54'0 0.0
2016-Feb-10 17:32N 35°35' E 139°54'0 0.0
2016-Feb-10 16:29N 35°35' E 139°54'0 0.0
2016-Feb-10 15:29N 35°35' E 139°54'0 0.0
2016-Feb-10 14:29N 35°35' E 139°54'0 0.0
2016-Feb-10 13:32N 35°35' E 139°54'0 0.0
2016-Feb-10 12:32N 35°35' E 139°54'0 0.0
2016-Feb-10 11:32N 35°35' E 139°54'0 0.0
2016-Feb-10 10:32N 35°35' E 139°54'0 0.0
2016-Feb-10 09:32N 35°35' E 139°54'0 0.0
2016-Feb-10 08:32N 35°35' E 139°54'0 0.0
2016-Feb-10 07:32N 35°35' E 139°54'0 0.0
2016-Feb-10 06:32N 35°35' E 139°54'0 0.0
2016-Feb-10 05:26N 35°35' E 139°54'0 0.0
2016-Feb-10 04:32N 35°35' E 139°54'0 0.0
2016-Feb-10 03:29N 35°35' E 139°54'1 1.0
2016-Feb-10 02:33N 35°34' E 139°54'1110.7
2016-Feb-10 01:33N 35°25' E 139°47'9 9.5
2016-Feb-10 00:33N 35°15' E 139°47'  
2016-Feb-07 10:15N 34°03' E 135°01'912.2
2016-Feb-07 09:32N 34°12' E 134°59'1511.0
2016-Feb-07 08:08N 34°26' E 135°07'712.4
2016-Feb-07 07:33N 34°30' E 135°14'1111.0
2016-Feb-07 06:33N 34°36' E 135°25'1 0.4
2016-Feb-07 03:25N 34°34' E 135°26'4 4.9
2016-Feb-07 02:32N 34°35' E 135°20'1111.1
2016-Feb-07 01:33N 34°27' E 135°11'1210.4
2016-Feb-07 00:25N 34°19' E 135°01'910.5
2016-Feb-06 23:33N 34°10' E 134°60'2 0.0
2016-Feb-05 10:21N 34°08' E 134°60'2011.2
2016-Feb-05 08:31N 34°27' E 135°08'1212.1
2016-Feb-05 07:33N 34°34' E 135°19'5 0.7
2016-Feb-05 00:33N 34°34' E 135°26'7 6.8
2016-Feb-04 23:33N 34°33' E 135°17'1211.6
2016-Feb-04 22:33N 34°25' E 135°07'1211.6
2016-Feb-04 21:32N 34°15' E 134°60'9 0.2
2016-Feb-03 08:32N 34°06' E 134°60'2211.2
2016-Feb-03 06:33N 34°27' E 135°09'1212.4
2016-Feb-03 05:33N 34°35' E 135°20'  

Dump ship's entire track history